sensor_id;sensor_type;location;lat;lon;timestamp;P1;durP1;ratioP1;P2;durP2;ratioP2
21780;SDS011;52576;53.614;9.894;2022-08-05T00:00:05;19.33;;;9.45;;
21780;SDS011;52576;53.614;9.894;2022-08-05T00:01:13;20.60;;;9.15;;
21780;SDS011;52576;53.614;9.894;2022-08-05T00:02:28;21.67;;;8.88;;
21780;SDS011;52576;53.614;9.894;2022-08-05T00:03:32;18.60;;;8.98;;
21780;SDS011;52576;53.614;9.894;2022-08-05T00:04:34;17.35;;;8.75;;
21780;SDS011;52576;53.614;9.894;2022-08-05T00:05:40;21.98;;;8.93;;
21780;SDS011;52576;53.614;9.894;2022-08-05T00:07:03;18.00;;;8.10;;
21780;SDS011;52576;53.614;9.894;2022-08-05T00:08:27;17.70;;;8.45;;
21780;SDS011;52576;53.614;9.894;2022-08-05T00:09:36;16.73;;;7.85;;
21780;SDS011;52576;53.614;9.894;2022-08-05T00:10:44;15.68;;;8.52;;
21780;SDS011;52576;53.614;9.894;2022-08-05T00:11:46;17.33;;;7.97;;
21780;SDS011;52576;53.614;9.894;2022-08-05T00:13:00;18.95;;;7.72;;
21780;SDS011;52576;53.614;9.894;2022-08-05T00:14:04;14.95;;;7.53;;
21780;SDS011;52576;53.614;9.894;2022-08-05T00:15:17;13.55;;;7.25;;
21780;SDS011;52576;53.614;9.894;2022-08-05T00:16:39;18.70;;;7.40;;
21780;SDS011;52576;53.614;9.894;2022-08-05T00:17:54;17.08;;;6.20;;
21780;SDS011;52576;53.614;9.894;2022-08-05T00:18:56;16.17;;;6.57;;
21780;SDS011;52576;53.614;9.894;2022-08-05T00:20:00;16.23;;;6.47;;
21780;SDS011;52576;53.614;9.894;2022-08-05T00:21:04;12.23;;;6.68;;
21780;SDS011;52576;53.614;9.894;2022-08-05T00:22:09;14.32;;;6.07;;
21780;SDS011;52576;53.614;9.894;2022-08-05T00:23:12;15.18;;;6.13;;
21780;SDS011;52576;53.614;9.894;2022-08-05T00:24:15;11.93;;;5.60;;
21780;SDS011;52576;53.614;9.894;2022-08-05T00:25:25;10.75;;;4.97;;
21780;SDS011;52576;53.614;9.894;2022-08-05T00:27:52;8.02;;;4.68;;
21780;SDS011;52576;53.614;9.894;2022-08-05T00:28:55;12.40;;;5.15;;
21780;SDS011;52576;53.614;9.894;2022-08-05T00:30:00;14.35;;;4.90;;
21780;SDS011;52576;53.614;9.894;2022-08-05T00:31:04;13.80;;;4.70;;
21780;SDS011;52576;53.614;9.894;2022-08-05T00:32:08;8.10;;;4.40;;
21780;SDS011;52576;53.614;9.894;2022-08-05T00:33:16;10.68;;;4.40;;
21780;SDS011;52576;53.614;9.894;2022-08-05T00:34:39;10.73;;;4.18;;
21780;SDS011;52576;53.614;9.894;2022-08-05T00:36:04;9.63;;;4.43;;
21780;SDS011;52576;53.614;9.894;2022-08-05T00:37:27;7.13;;;3.83;;
21780;SDS011;52576;53.614;9.894;2022-08-05T00:38:51;10.43;;;3.75;;
21780;SDS011;52576;53.614;9.894;2022-08-05T00:39:59;11.77;;;3.85;;
21780;SDS011;52576;53.614;9.894;2022-08-05T00:41:03;7.75;;;3.90;;
21780;SDS011;52576;53.614;9.894;2022-08-05T00:42:12;10.30;;;4.35;;
21780;SDS011;52576;53.614;9.894;2022-08-05T00:43:32;8.45;;;4.00;;
21780;SDS011;52576;53.614;9.894;2022-08-05T00:44:50;7.05;;;3.40;;
21780;SDS011;52576;53.614;9.894;2022-08-05T00:45:53;6.10;;;3.33;;
21780;SDS011;52576;53.614;9.894;2022-08-05T00:46:57;7.63;;;3.65;;
21780;SDS011;52576;53.614;9.894;2022-08-05T00:48:05;6.50;;;3.25;;
21780;SDS011;52576;53.614;9.894;2022-08-05T00:49:09;10.82;;;3.42;;
21780;SDS011;52576;53.614;9.894;2022-08-05T00:50:15;9.32;;;3.40;;
21780;SDS011;52576;53.614;9.894;2022-08-05T00:51:18;11.18;;;3.95;;
21780;SDS011;52576;53.614;9.894;2022-08-05T00:52:42;7.82;;;3.30;;
21780;SDS011;52576;53.614;9.894;2022-08-05T00:53:47;8.05;;;3.25;;
21780;SDS011;52576;53.614;9.894;2022-08-05T00:55:04;7.43;;;3.50;;
21780;SDS011;52576;53.614;9.894;2022-08-05T00:56:07;11.35;;;3.20;;
21780;SDS011;52576;53.614;9.894;2022-08-05T00:57:12;11.23;;;3.25;;
21780;SDS011;52576;53.614;9.894;2022-08-05T00:58:15;6.57;;;2.70;;
21780;SDS011;52576;53.614;9.894;2022-08-05T00:59:19;5.63;;;2.90;;
21780;SDS011;52576;53.614;9.894;2022-08-05T01:00:22;6.28;;;3.03;;
21780;SDS011;52576;53.614;9.894;2022-08-05T01:01:28;7.68;;;2.63;;
21780;SDS011;52576;53.614;9.894;2022-08-05T01:02:49;7.13;;;2.97;;
21780;SDS011;52576;53.614;9.894;2022-08-05T01:03:53;8.48;;;2.90;;
21780;SDS011;52576;53.614;9.894;2022-08-05T01:04:57;7.85;;;2.78;;
21780;SDS011;52576;53.614;9.894;2022-08-05T01:05:59;9.25;;;3.15;;
21780;SDS011;52576;53.614;9.894;2022-08-05T01:07:06;9.05;;;2.95;;
21780;SDS011;52576;53.614;9.894;2022-08-05T01:08:14;7.00;;;2.67;;
21780;SDS011;52576;53.614;9.894;2022-08-05T01:09:37;10.25;;;2.88;;
21780;SDS011;52576;53.614;9.894;2022-08-05T01:10:42;11.02;;;2.78;;
21780;SDS011;52576;53.614;9.894;2022-08-05T01:11:53;7.22;;;2.70;;
21780;SDS011;52576;53.614;9.894;2022-08-05T01:13:20;9.05;;;2.42;;
21780;SDS011;52576;53.614;9.894;2022-08-05T01:14:47;9.65;;;2.67;;
21780;SDS011;52576;53.614;9.894;2022-08-05T01:15:55;10.98;;;2.60;;
21780;SDS011;52576;53.614;9.894;2022-08-05T01:17:03;9.63;;;2.35;;
21780;SDS011;52576;53.614;9.894;2022-08-05T01:18:11;6.13;;;2.42;;
21780;SDS011;52576;53.614;9.894;2022-08-05T01:19:21;9.80;;;2.72;;
21780;SDS011;52576;53.614;9.894;2022-08-05T01:20:49;5.35;;;2.35;;
21780;SDS011;52576;53.614;9.894;2022-08-05T01:22:10;7.32;;;2.85;;
21780;SDS011;52576;53.614;9.894;2022-08-05T01:23:33;9.98;;;2.55;;
21780;SDS011;52576;53.614;9.894;2022-08-05T01:25:07;6.68;;;2.38;;
21780;SDS011;52576;53.614;9.894;2022-08-05T01:26:47;7.40;;;2.22;;
21780;SDS011;52576;53.614;9.894;2022-08-05T01:28:23;8.13;;;2.47;;
21780;SDS011;52576;53.614;9.894;2022-08-05T01:29:28;10.52;;;2.70;;
21780;SDS011;52576;53.614;9.894;2022-08-05T01:30:37;8.05;;;2.40;;
21780;SDS011;52576;53.614;9.894;2022-08-05T01:31:57;7.50;;;2.35;;
21780;SDS011;52576;53.614;9.894;2022-08-05T01:33:05;5.18;;;2.28;;
21780;SDS011;52576;53.614;9.894;2022-08-05T01:34:11;8.88;;;2.70;;
21780;SDS011;52576;53.614;9.894;2022-08-05T01:35:21;6.95;;;2.45;;
21780;SDS011;52576;53.614;9.894;2022-08-05T01:36:48;5.90;;;2.33;;
21780;SDS011;52576;53.614;9.894;2022-08-05T01:37:55;9.68;;;2.75;;
21780;SDS011;52576;53.614;9.894;2022-08-05T01:39:00;6.45;;;2.40;;
21780;SDS011;52576;53.614;9.894;2022-08-05T01:40:04;9.25;;;2.80;;
21780;SDS011;52576;53.614;9.894;2022-08-05T01:41:09;5.60;;;2.33;;
21780;SDS011;52576;53.614;9.894;2022-08-05T01:42:16;6.82;;;2.55;;
21780;SDS011;52576;53.614;9.894;2022-08-05T01:43:24;7.60;;;2.30;;
21780;SDS011;52576;53.614;9.894;2022-08-05T01:44:28;9.52;;;2.35;;
21780;SDS011;52576;53.614;9.894;2022-08-05T01:45:36;7.28;;;2.42;;
21780;SDS011;52576;53.614;9.894;2022-08-05T01:46:46;5.95;;;2.28;;
21780;SDS011;52576;53.614;9.894;2022-08-05T01:47:52;9.80;;;2.70;;
21780;SDS011;52576;53.614;9.894;2022-08-05T01:48:56;6.10;;;2.35;;
21780;SDS011;52576;53.614;9.894;2022-08-05T01:50:23;7.38;;;2.50;;
21780;SDS011;52576;53.614;9.894;2022-08-05T01:51:30;6.70;;;2.25;;
21780;SDS011;52576;53.614;9.894;2022-08-05T01:52:37;5.80;;;2.30;;
21780;SDS011;52576;53.614;9.894;2022-08-05T01:53:45;9.45;;;2.65;;
21780;SDS011;52576;53.614;9.894;2022-08-05T01:55:00;8.13;;;2.30;;
21780;SDS011;52576;53.614;9.894;2022-08-05T01:56:09;7.57;;;2.28;;
21780;SDS011;52576;53.614;9.894;2022-08-05T01:57:37;6.85;;;2.33;;
21780;SDS011;52576;53.614;9.894;2022-08-05T01:59:05;8.82;;;2.22;;
21780;SDS011;52576;53.614;9.894;2022-08-05T02:00:10;10.75;;;2.40;;
21780;SDS011;52576;53.614;9.894;2022-08-05T02:01:15;5.68;;;2.45;;
21780;SDS011;52576;53.614;9.894;2022-08-05T02:02:28;9.18;;;2.53;;
21780;SDS011;52576;53.614;9.894;2022-08-05T02:03:36;11.55;;;3.10;;
21780;SDS011;52576;53.614;9.894;2022-08-05T02:04:43;5.65;;;2.30;;
21780;SDS011;52576;53.614;9.894;2022-08-05T02:05:51;7.78;;;2.45;;
21780;SDS011;52576;53.614;9.894;2022-08-05T02:07:03;5.65;;;2.45;;
21780;SDS011;52576;53.614;9.894;2022-08-05T02:08:07;6.43;;;2.47;;
21780;SDS011;52576;53.614;9.894;2022-08-05T02:09:10;10.40;;;2.60;;
21780;SDS011;52576;53.614;9.894;2022-08-05T02:10:21;8.57;;;2.28;;
21780;SDS011;52576;53.614;9.894;2022-08-05T02:11:30;9.52;;;2.72;;
21780;SDS011;52576;53.614;9.894;2022-08-05T02:12:49;6.40;;;2.40;;
21780;SDS011;52576;53.614;9.894;2022-08-05T02:13:55;8.95;;;2.30;;
21780;SDS011;52576;53.614;9.894;2022-08-05T02:15:07;8.98;;;2.83;;
21780;SDS011;52576;53.614;9.894;2022-08-05T02:17:24;5.55;;;2.17;;
21780;SDS011;52576;53.614;9.894;2022-08-05T02:18:52;5.57;;;2.30;;
21780;SDS011;52576;53.614;9.894;2022-08-05T02:19:58;5.38;;;2.15;;
21780;SDS011;52576;53.614;9.894;2022-08-05T02:21:05;7.22;;;2.20;;
21780;SDS011;52576;53.614;9.894;2022-08-05T02:22:16;10.23;;;2.60;;
21780;SDS011;52576;53.614;9.894;2022-08-05T02:23:28;10.00;;;2.67;;
21780;SDS011;52576;53.614;9.894;2022-08-05T02:24:36;7.03;;;2.60;;
21780;SDS011;52576;53.614;9.894;2022-08-05T02:25:42;6.65;;;2.63;;
21780;SDS011;52576;53.614;9.894;2022-08-05T02:27:58;6.45;;;2.17;;
21780;SDS011;52576;53.614;9.894;2022-08-05T02:29:01;8.90;;;2.60;;
21780;SDS011;52576;53.614;9.894;2022-08-05T02:30:19;6.75;;;2.72;;
21780;SDS011;52576;53.614;9.894;2022-08-05T02:31:25;6.30;;;2.47;;
21780;SDS011;52576;53.614;9.894;2022-08-05T02:32:35;12.45;;;2.58;;
21780;SDS011;52576;53.614;9.894;2022-08-05T02:33:41;5.68;;;2.45;;
21780;SDS011;52576;53.614;9.894;2022-08-05T02:34:58;8.90;;;2.20;;
21780;SDS011;52576;53.614;9.894;2022-08-05T02:36:15;6.95;;;2.35;;
21780;SDS011;52576;53.614;9.894;2022-08-05T02:37:27;9.32;;;2.70;;
21780;SDS011;52576;53.614;9.894;2022-08-05T02:38:35;6.15;;;2.30;;
21780;SDS011;52576;53.614;9.894;2022-08-05T02:39:39;6.18;;;2.70;;
21780;SDS011;52576;53.614;9.894;2022-08-05T02:40:48;8.10;;;2.55;;
21780;SDS011;52576;53.614;9.894;2022-08-05T02:41:51;9.32;;;2.60;;
21780;SDS011;52576;53.614;9.894;2022-08-05T02:43:01;7.22;;;2.55;;
21780;SDS011;52576;53.614;9.894;2022-08-05T02:44:07;6.88;;;2.47;;
21780;SDS011;52576;53.614;9.894;2022-08-05T02:45:14;7.75;;;2.47;;
21780;SDS011;52576;53.614;9.894;2022-08-05T02:46:19;4.80;;;2.10;;
21780;SDS011;52576;53.614;9.894;2022-08-05T02:47:28;6.30;;;2.28;;
21780;SDS011;52576;53.614;9.894;2022-08-05T02:48:51;6.47;;;2.85;;
21780;SDS011;52576;53.614;9.894;2022-08-05T02:49:55;5.63;;;2.60;;
21780;SDS011;52576;53.614;9.894;2022-08-05T02:50:58;6.38;;;2.55;;
21780;SDS011;52576;53.614;9.894;2022-08-05T02:52:06;8.52;;;3.00;;
21780;SDS011;52576;53.614;9.894;2022-08-05T02:53:12;7.38;;;2.80;;
21780;SDS011;52576;53.614;9.894;2022-08-05T02:54:20;11.75;;;2.85;;
21780;SDS011;52576;53.614;9.894;2022-08-05T02:55:37;8.43;;;2.70;;
21780;SDS011;52576;53.614;9.894;2022-08-05T02:56:55;8.38;;;2.55;;
21780;SDS011;52576;53.614;9.894;2022-08-05T02:57:59;8.70;;;2.58;;
21780;SDS011;52576;53.614;9.894;2022-08-05T02:59:13;6.93;;;2.40;;
21780;SDS011;52576;53.614;9.894;2022-08-05T03:00:18;8.20;;;3.00;;
21780;SDS011;52576;53.614;9.894;2022-08-05T03:01:24;11.18;;;3.53;;
21780;SDS011;52576;53.614;9.894;2022-08-05T03:02:28;7.97;;;3.28;;
21780;SDS011;52576;53.614;9.894;2022-08-05T03:03:36;10.15;;;3.50;;
21780;SDS011;52576;53.614;9.894;2022-08-05T03:05:01;10.00;;;3.00;;
21780;SDS011;52576;53.614;9.894;2022-08-05T03:06:06;6.50;;;2.67;;
21780;SDS011;52576;53.614;9.894;2022-08-05T03:07:31;9.20;;;3.22;;
21780;SDS011;52576;53.614;9.894;2022-08-05T03:08:55;9.60;;;2.80;;
21780;SDS011;52576;53.614;9.894;2022-08-05T03:10:00;5.10;;;2.65;;
21780;SDS011;52576;53.614;9.894;2022-08-05T03:11:03;7.47;;;3.05;;
21780;SDS011;52576;53.614;9.894;2022-08-05T03:12:38;10.40;;;2.97;;
21780;SDS011;52576;53.614;9.894;2022-08-05T03:13:41;7.70;;;2.97;;
21780;SDS011;52576;53.614;9.894;2022-08-05T03:15:03;10.60;;;3.05;;
21780;SDS011;52576;53.614;9.894;2022-08-05T03:16:09;7.18;;;2.97;;
21780;SDS011;52576;53.614;9.894;2022-08-05T03:17:17;8.10;;;2.65;;
21780;SDS011;52576;53.614;9.894;2022-08-05T03:18:22;7.10;;;2.70;;
21780;SDS011;52576;53.614;9.894;2022-08-05T03:19:30;6.60;;;3.17;;
21780;SDS011;52576;53.614;9.894;2022-08-05T03:20:37;11.30;;;3.22;;
21780;SDS011;52576;53.614;9.894;2022-08-05T03:21:49;10.45;;;3.40;;
21780;SDS011;52576;53.614;9.894;2022-08-05T03:22:52;7.53;;;3.00;;
21780;SDS011;52576;53.614;9.894;2022-08-05T03:23:58;8.65;;;3.17;;
21780;SDS011;52576;53.614;9.894;2022-08-05T03:25:03;9.38;;;3.33;;
21780;SDS011;52576;53.614;9.894;2022-08-05T03:26:26;5.47;;;3.00;;
21780;SDS011;52576;53.614;9.894;2022-08-05T03:27:33;6.03;;;2.92;;
21780;SDS011;52576;53.614;9.894;2022-08-05T03:28:55;6.50;;;3.00;;
21780;SDS011;52576;53.614;9.894;2022-08-05T03:29:58;10.73;;;3.08;;
21780;SDS011;52576;53.614;9.894;2022-08-05T03:31:09;11.07;;;3.45;;
21780;SDS011;52576;53.614;9.894;2022-08-05T03:32:35;9.25;;;3.05;;
21780;SDS011;52576;53.614;9.894;2022-08-05T03:33:39;7.38;;;3.20;;
21780;SDS011;52576;53.614;9.894;2022-08-05T03:34:51;7.93;;;3.40;;
21780;SDS011;52576;53.614;9.894;2022-08-05T03:35:56;10.07;;;3.55;;
21780;SDS011;52576;53.614;9.894;2022-08-05T03:37:01;8.00;;;2.92;;
21780;SDS011;52576;53.614;9.894;2022-08-05T03:38:06;7.65;;;3.08;;
21780;SDS011;52576;53.614;9.894;2022-08-05T03:39:08;8.48;;;3.50;;
21780;SDS011;52576;53.614;9.894;2022-08-05T03:40:20;8.82;;;3.30;;
21780;SDS011;52576;53.614;9.894;2022-08-05T03:41:32;5.93;;;3.15;;
21780;SDS011;52576;53.614;9.894;2022-08-05T03:42:45;6.75;;;3.15;;
21780;SDS011;52576;53.614;9.894;2022-08-05T03:43:53;8.10;;;3.45;;
21780;SDS011;52576;53.614;9.894;2022-08-05T03:45:12;12.38;;;3.72;;
21780;SDS011;52576;53.614;9.894;2022-08-05T03:46:23;12.18;;;3.50;;
21780;SDS011;52576;53.614;9.894;2022-08-05T03:47:30;9.85;;;3.30;;
21780;SDS011;52576;53.614;9.894;2022-08-05T03:48:43;8.80;;;3.88;;
21780;SDS011;52576;53.614;9.894;2022-08-05T03:49:47;7.70;;;3.30;;
21780;SDS011;52576;53.614;9.894;2022-08-05T03:50:54;8.70;;;3.90;;
21780;SDS011;52576;53.614;9.894;2022-08-05T03:52:25;6.82;;;3.42;;
21780;SDS011;52576;53.614;9.894;2022-08-05T03:53:53;9.85;;;3.67;;
21780;SDS011;52576;53.614;9.894;2022-08-05T03:55:21;9.13;;;3.10;;
21780;SDS011;52576;53.614;9.894;2022-08-05T03:56:48;6.97;;;3.50;;
21780;SDS011;52576;53.614;9.894;2022-08-05T03:57:52;8.30;;;3.50;;
21780;SDS011;52576;53.614;9.894;2022-08-05T03:58:59;10.20;;;3.70;;
21780;SDS011;52576;53.614;9.894;2022-08-05T04:00:04;10.05;;;3.55;;
21780;SDS011;52576;53.614;9.894;2022-08-05T04:01:14;7.13;;;3.55;;
21780;SDS011;52576;53.614;9.894;2022-08-05T04:02:22;8.02;;;3.63;;
21780;SDS011;52576;53.614;9.894;2022-08-05T04:03:39;9.45;;;3.35;;
21780;SDS011;52576;53.614;9.894;2022-08-05T04:05:09;7.13;;;3.22;;
21780;SDS011;52576;53.614;9.894;2022-08-05T04:06:12;7.43;;;3.55;;
21780;SDS011;52576;53.614;9.894;2022-08-05T04:07:21;8.68;;;3.40;;
21780;SDS011;52576;53.614;9.894;2022-08-05T04:08:25;9.63;;;3.70;;
21780;SDS011;52576;53.614;9.894;2022-08-05T04:09:37;10.20;;;3.92;;
21780;SDS011;52576;53.614;9.894;2022-08-05T04:10:54;11.30;;;3.70;;
21780;SDS011;52576;53.614;9.894;2022-08-05T04:11:58;9.63;;;3.70;;
21780;SDS011;52576;53.614;9.894;2022-08-05T04:13:00;7.88;;;3.50;;
21780;SDS011;52576;53.614;9.894;2022-08-05T04:14:04;7.35;;;3.50;;
21780;SDS011;52576;53.614;9.894;2022-08-05T04:15:08;8.63;;;3.47;;
21780;SDS011;52576;53.614;9.894;2022-08-05T04:16:17;7.25;;;3.40;;
21780;SDS011;52576;53.614;9.894;2022-08-05T04:17:26;9.93;;;3.80;;
21780;SDS011;52576;53.614;9.894;2022-08-05T04:18:50;7.25;;;3.40;;
21780;SDS011;52576;53.614;9.894;2022-08-05T04:19:55;9.82;;;3.70;;
21780;SDS011;52576;53.614;9.894;2022-08-05T04:20:59;9.43;;;3.72;;
21780;SDS011;52576;53.614;9.894;2022-08-05T04:22:04;9.50;;;3.90;;
21780;SDS011;52576;53.614;9.894;2022-08-05T04:23:12;12.55;;;3.78;;
21780;SDS011;52576;53.614;9.894;2022-08-05T04:24:16;9.70;;;3.60;;
21780;SDS011;52576;53.614;9.894;2022-08-05T04:25:23;8.70;;;3.65;;
21780;SDS011;52576;53.614;9.894;2022-08-05T04:26:45;12.13;;;4.00;;
21780;SDS011;52576;53.614;9.894;2022-08-05T04:27:49;9.48;;;3.47;;
21780;SDS011;52576;53.614;9.894;2022-08-05T04:29:00;7.70;;;3.35;;
21780;SDS011;52576;53.614;9.894;2022-08-05T04:30:08;8.27;;;4.13;;
21780;SDS011;52576;53.614;9.894;2022-08-05T04:31:11;9.30;;;3.50;;
21780;SDS011;52576;53.614;9.894;2022-08-05T04:32:25;8.82;;;3.50;;
21780;SDS011;52576;53.614;9.894;2022-08-05T04:33:33;8.90;;;3.63;;
21780;SDS011;52576;53.614;9.894;2022-08-05T04:34:57;8.48;;;3.67;;
21780;SDS011;52576;53.614;9.894;2022-08-05T04:36:00;10.60;;;4.20;;
21780;SDS011;52576;53.614;9.894;2022-08-05T04:37:17;9.10;;;4.10;;
21780;SDS011;52576;53.614;9.894;2022-08-05T04:38:23;13.02;;;4.00;;
21780;SDS011;52576;53.614;9.894;2022-08-05T04:39:40;9.77;;;3.90;;
21780;SDS011;52576;53.614;9.894;2022-08-05T04:40:43;9.18;;;3.83;;
21780;SDS011;52576;53.614;9.894;2022-08-05T04:41:51;7.47;;;3.80;;
21780;SDS011;52576;53.614;9.894;2022-08-05T04:42:55;10.48;;;3.70;;
21780;SDS011;52576;53.614;9.894;2022-08-05T04:43:58;7.40;;;4.05;;
21780;SDS011;52576;53.614;9.894;2022-08-05T04:45:10;9.65;;;3.85;;
21780;SDS011;52576;53.614;9.894;2022-08-05T04:46:23;9.80;;;3.92;;
21780;SDS011;52576;53.614;9.894;2022-08-05T04:47:29;8.70;;;3.78;;
21780;SDS011;52576;53.614;9.894;2022-08-05T04:48:47;6.78;;;3.60;;
21780;SDS011;52576;53.614;9.894;2022-08-05T04:49:52;8.25;;;4.03;;
21780;SDS011;52576;53.614;9.894;2022-08-05T04:51:13;7.97;;;3.50;;
21780;SDS011;52576;53.614;9.894;2022-08-05T04:52:15;8.75;;;3.92;;
21780;SDS011;52576;53.614;9.894;2022-08-05T04:53:19;6.82;;;3.80;;
21780;SDS011;52576;53.614;9.894;2022-08-05T04:54:21;7.72;;;3.78;;
21780;SDS011;52576;53.614;9.894;2022-08-05T04:55:28;9.43;;;4.10;;
21780;SDS011;52576;53.614;9.894;2022-08-05T04:56:50;12.82;;;4.13;;
21780;SDS011;52576;53.614;9.894;2022-08-05T04:58:00;10.93;;;3.72;;
21780;SDS011;52576;53.614;9.894;2022-08-05T04:59:02;10.10;;;4.60;;
21780;SDS011;52576;53.614;9.894;2022-08-05T05:00:25;8.43;;;4.03;;
21780;SDS011;52576;53.614;9.894;2022-08-05T05:01:30;6.63;;;3.70;;
21780;SDS011;52576;53.614;9.894;2022-08-05T05:02:52;8.82;;;4.05;;
21780;SDS011;52576;53.614;9.894;2022-08-05T05:04:04;9.25;;;4.38;;
21780;SDS011;52576;53.614;9.894;2022-08-05T05:05:06;10.73;;;3.67;;
21780;SDS011;52576;53.614;9.894;2022-08-05T05:06:30;7.65;;;3.83;;
21780;SDS011;52576;53.614;9.894;2022-08-05T05:07:45;11.50;;;4.60;;
21780;SDS011;52576;53.614;9.894;2022-08-05T05:08:57;8.73;;;3.83;;
21780;SDS011;52576;53.614;9.894;2022-08-05T05:10:01;9.90;;;3.90;;
21780;SDS011;52576;53.614;9.894;2022-08-05T05:11:06;10.43;;;3.90;;
21780;SDS011;52576;53.614;9.894;2022-08-05T05:12:15;8.68;;;3.90;;
21780;SDS011;52576;53.614;9.894;2022-08-05T05:13:17;9.27;;;4.07;;
21780;SDS011;52576;53.614;9.894;2022-08-05T05:14:21;7.78;;;4.00;;
21780;SDS011;52576;53.614;9.894;2022-08-05T05:16:55;11.27;;;3.95;;
21780;SDS011;52576;53.614;9.894;2022-08-05T05:17:58;6.85;;;3.47;;
21780;SDS011;52576;53.614;9.894;2022-08-05T05:19:21;7.50;;;3.85;;
21780;SDS011;52576;53.614;9.894;2022-08-05T05:20:28;8.20;;;3.72;;
21780;SDS011;52576;53.614;9.894;2022-08-05T05:21:32;8.93;;;3.90;;
21780;SDS011;52576;53.614;9.894;2022-08-05T05:22:36;7.57;;;3.88;;
21780;SDS011;52576;53.614;9.894;2022-08-05T05:23:41;9.98;;;4.15;;
21780;SDS011;52576;53.614;9.894;2022-08-05T05:25:05;9.07;;;3.70;;
21780;SDS011;52576;53.614;9.894;2022-08-05T05:26:17;8.23;;;3.58;;
21780;SDS011;52576;53.614;9.894;2022-08-05T05:27:33;8.32;;;3.90;;
21780;SDS011;52576;53.614;9.894;2022-08-05T05:28:49;8.68;;;3.95;;
21780;SDS011;52576;53.614;9.894;2022-08-05T05:29:51;8.27;;;3.65;;
21780;SDS011;52576;53.614;9.894;2022-08-05T05:31:05;6.95;;;3.90;;
21780;SDS011;52576;53.614;9.894;2022-08-05T05:32:09;10.95;;;4.50;;
21780;SDS011;52576;53.614;9.894;2022-08-05T05:33:13;14.70;;;4.43;;
21780;SDS011;52576;53.614;9.894;2022-08-05T05:34:18;8.65;;;4.38;;
21780;SDS011;52576;53.614;9.894;2022-08-05T05:35:27;10.47;;;3.90;;
21780;SDS011;52576;53.614;9.894;2022-08-05T05:36:40;7.30;;;4.35;;
21780;SDS011;52576;53.614;9.894;2022-08-05T05:37:46;8.15;;;4.00;;
21780;SDS011;52576;53.614;9.894;2022-08-05T05:39:01;9.65;;;4.07;;
21780;SDS011;52576;53.614;9.894;2022-08-05T05:40:10;7.47;;;4.50;;
21780;SDS011;52576;53.614;9.894;2022-08-05T05:41:15;10.05;;;4.40;;
21780;SDS011;52576;53.614;9.894;2022-08-05T05:42:19;8.82;;;4.10;;
21780;SDS011;52576;53.614;9.894;2022-08-05T05:43:21;6.55;;;4.13;;
21780;SDS011;52576;53.614;9.894;2022-08-05T05:44:45;7.35;;;3.80;;
21780;SDS011;52576;53.614;9.894;2022-08-05T05:45:48;8.73;;;4.15;;
21780;SDS011;52576;53.614;9.894;2022-08-05T05:46:50;10.90;;;4.15;;
21780;SDS011;52576;53.614;9.894;2022-08-05T05:47:53;8.48;;;3.97;;
21780;SDS011;52576;53.614;9.894;2022-08-05T05:49:08;8.35;;;3.80;;
21780;SDS011;52576;53.614;9.894;2022-08-05T05:50:23;8.70;;;3.63;;
21780;SDS011;52576;53.614;9.894;2022-08-05T05:51:27;9.32;;;4.00;;
21780;SDS011;52576;53.614;9.894;2022-08-05T05:52:51;6.93;;;3.90;;
21780;SDS011;52576;53.614;9.894;2022-08-05T05:53:54;9.32;;;4.00;;
21780;SDS011;52576;53.614;9.894;2022-08-05T05:55:00;10.27;;;3.97;;
21780;SDS011;52576;53.614;9.894;2022-08-05T05:56:14;8.73;;;3.90;;
21780;SDS011;52576;53.614;9.894;2022-08-05T05:57:26;9.43;;;3.78;;
21780;SDS011;52576;53.614;9.894;2022-08-05T05:58:43;6.78;;;3.90;;
21780;SDS011;52576;53.614;9.894;2022-08-05T05:59:50;7.28;;;3.80;;
21780;SDS011;52576;53.614;9.894;2022-08-05T06:00:56;8.82;;;4.10;;
21780;SDS011;52576;53.614;9.894;2022-08-05T06:02:13;8.90;;;3.65;;
21780;SDS011;52576;53.614;9.894;2022-08-05T06:03:17;5.70;;;3.72;;
21780;SDS011;52576;53.614;9.894;2022-08-05T06:04:40;11.05;;;3.88;;
21780;SDS011;52576;53.614;9.894;2022-08-05T06:05:49;8.65;;;3.78;;
21780;SDS011;52576;53.614;9.894;2022-08-05T06:06:54;9.43;;;4.35;;
21780;SDS011;52576;53.614;9.894;2022-08-05T06:08:03;7.25;;;4.00;;
21780;SDS011;52576;53.614;9.894;2022-08-05T06:09:05;9.55;;;4.25;;
21780;SDS011;52576;53.614;9.894;2022-08-05T06:10:09;9.38;;;4.90;;
21780;SDS011;52576;53.614;9.894;2022-08-05T06:11:13;9.45;;;4.28;;
21780;SDS011;52576;53.614;9.894;2022-08-05T06:12:15;8.93;;;4.15;;
21780;SDS011;52576;53.614;9.894;2022-08-05T06:13:20;12.68;;;4.28;;
21780;SDS011;52576;53.614;9.894;2022-08-05T06:14:24;11.00;;;4.20;;
21780;SDS011;52576;53.614;9.894;2022-08-05T06:15:29;9.02;;;4.45;;
21780;SDS011;52576;53.614;9.894;2022-08-05T06:16:51;10.23;;;4.30;;
21780;SDS011;52576;53.614;9.894;2022-08-05T06:17:57;9.88;;;4.13;;
21780;SDS011;52576;53.614;9.894;2022-08-05T06:18:59;9.18;;;4.10;;
21780;SDS011;52576;53.614;9.894;2022-08-05T06:20:08;10.15;;;4.22;;
21780;SDS011;52576;53.614;9.894;2022-08-05T06:21:22;9.35;;;4.32;;
21780;SDS011;52576;53.614;9.894;2022-08-05T06:22:37;7.78;;;3.70;;
21780;SDS011;52576;53.614;9.894;2022-08-05T06:23:44;8.75;;;3.58;;
21780;SDS011;52576;53.614;9.894;2022-08-05T06:24:50;11.13;;;4.00;;
21780;SDS011;52576;53.614;9.894;2022-08-05T06:25:53;8.65;;;4.05;;
21780;SDS011;52576;53.614;9.894;2022-08-05T06:27:13;9.00;;;4.20;;
21780;SDS011;52576;53.614;9.894;2022-08-05T06:28:37;9.05;;;4.28;;
21780;SDS011;52576;53.614;9.894;2022-08-05T06:29:40;6.15;;;3.78;;
21780;SDS011;52576;53.614;9.894;2022-08-05T06:31:04;8.82;;;3.80;;
21780;SDS011;52576;53.614;9.894;2022-08-05T06:32:18;10.05;;;4.15;;
21780;SDS011;52576;53.614;9.894;2022-08-05T06:33:29;9.10;;;4.07;;
21780;SDS011;52576;53.614;9.894;2022-08-05T06:34:53;8.80;;;3.63;;
21780;SDS011;52576;53.614;9.894;2022-08-05T06:35:57;12.60;;;3.90;;
21780;SDS011;52576;53.614;9.894;2022-08-05T06:37:09;8.82;;;3.78;;
21780;SDS011;52576;53.614;9.894;2022-08-05T06:38:32;12.00;;;3.78;;
21780;SDS011;52576;53.614;9.894;2022-08-05T06:39:38;10.38;;;3.47;;
21780;SDS011;52576;53.614;9.894;2022-08-05T06:40:42;6.32;;;3.00;;
21780;SDS011;52576;53.614;9.894;2022-08-05T06:41:49;8.15;;;3.38;;
21780;SDS011;52576;53.614;9.894;2022-08-05T06:42:52;6.15;;;2.97;;
21780;SDS011;52576;53.614;9.894;2022-08-05T06:43:55;6.97;;;3.13;;
21780;SDS011;52576;53.614;9.894;2022-08-05T06:45:01;8.45;;;3.30;;
21780;SDS011;52576;53.614;9.894;2022-08-05T06:46:08;6.82;;;3.28;;
21780;SDS011;52576;53.614;9.894;2022-08-05T06:47:12;9.95;;;3.05;;
21780;SDS011;52576;53.614;9.894;2022-08-05T06:48:34;6.20;;;3.00;;
21780;SDS011;52576;53.614;9.894;2022-08-05T06:49:57;8.18;;;3.08;;
21780;SDS011;52576;53.614;9.894;2022-08-05T06:51:06;8.77;;;3.20;;
21780;SDS011;52576;53.614;9.894;2022-08-05T06:52:10;8.95;;;3.13;;
21780;SDS011;52576;53.614;9.894;2022-08-05T06:53:34;7.25;;;2.90;;
21780;SDS011;52576;53.614;9.894;2022-08-05T06:54:41;6.15;;;3.03;;
21780;SDS011;52576;53.614;9.894;2022-08-05T06:55:52;7.07;;;2.80;;
21780;SDS011;52576;53.614;9.894;2022-08-05T06:56:57;4.78;;;2.38;;
21780;SDS011;52576;53.614;9.894;2022-08-05T06:58:14;8.27;;;2.40;;
21780;SDS011;52576;53.614;9.894;2022-08-05T06:59:37;6.13;;;2.20;;
21780;SDS011;52576;53.614;9.894;2022-08-05T07:00:42;8.85;;;2.50;;
21780;SDS011;52576;53.614;9.894;2022-08-05T07:01:45;7.18;;;2.40;;
21780;SDS011;52576;53.614;9.894;2022-08-05T07:02:53;7.30;;;2.38;;
21780;SDS011;52576;53.614;9.894;2022-08-05T07:03:56;5.45;;;2.10;;
21780;SDS011;52576;53.614;9.894;2022-08-05T07:04:59;8.88;;;2.40;;
21780;SDS011;52576;53.614;9.894;2022-08-05T07:06:03;7.43;;;2.65;;
21780;SDS011;52576;53.614;9.894;2022-08-05T07:07:15;4.47;;;2.15;;